sensor_id;sensor_type;location;lat;lon;timestamp;temperature;humidity
21944;DHT22;11136;48.778;9.126;2023-02-10T00:00:13;0.80;92.20
21944;DHT22;11136;48.778;9.126;2023-02-10T00:02:39;0.70;92.20
21944;DHT22;11136;48.778;9.126;2023-02-10T00:05:05;0.70;92.20
21944;DHT22;11136;48.778;9.126;2023-02-10T00:07:31;0.70;92.20
21944;DHT22;11136;48.778;9.126;2023-02-10T00:09:56;0.60;92.20
21944;DHT22;11136;48.778;9.126;2023-02-10T00:12:22;0.60;92.20
21944;DHT22;11136;48.778;9.126;2023-02-10T00:14:47;0.60;92.30
21944;DHT22;11136;48.778;9.126;2023-02-10T00:17:13;0.60;92.30
21944;DHT22;11136;48.778;9.126;2023-02-10T00:19:42;0.60;92.30
21944;DHT22;11136;48.778;9.126;2023-02-10T00:22:08;0.50;92.30
21944;DHT22;11136;48.778;9.126;2023-02-10T00:24:33;0.50;92.30
21944;DHT22;11136;48.778;9.126;2023-02-10T00:26:59;0.50;92.40
21944;DHT22;11136;48.778;9.126;2023-02-10T00:29:25;0.50;92.40
21944;DHT22;11136;48.778;9.126;2023-02-10T00:31:51;0.50;92.40
21944;DHT22;11136;48.778;9.126;2023-02-10T00:34:18;0.50;92.40
21944;DHT22;11136;48.778;9.126;2023-02-10T00:36:44;0.40;92.40
21944;DHT22;11136;48.778;9.126;2023-02-10T00:39:14;0.40;92.50
21944;DHT22;11136;48.778;9.126;2023-02-10T00:41:40;0.40;92.50
21944;DHT22;11136;48.778;9.126;2023-02-10T00:44:05;0.40;92.50
21944;DHT22;11136;48.778;9.126;2023-02-10T00:46:31;0.30;92.50
21944;DHT22;11136;48.778;9.126;2023-02-10T00:48:57;0.30;92.60
21944;DHT22;11136;48.778;9.126;2023-02-10T00:51:22;0.30;92.60
21944;DHT22;11136;48.778;9.126;2023-02-10T00:53:48;0.30;92.60
21944;DHT22;11136;48.778;9.126;2023-02-10T00:56:17;0.30;92.70
21944;DHT22;11136;48.778;9.126;2023-02-10T00:58:43;0.30;92.70
21944;DHT22;11136;48.778;9.126;2023-02-10T01:01:09;0.20;92.70
21944;DHT22;11136;48.778;9.126;2023-02-10T01:03:35;0.20;92.70
21944;DHT22;11136;48.778;9.126;2023-02-10T01:06:01;0.20;92.80
21944;DHT22;11136;48.778;9.126;2023-02-10T01:08:26;0.20;92.80
21944;DHT22;11136;48.778;9.126;2023-02-10T01:11:06;0.20;92.80
21944;DHT22;11136;48.778;9.126;2023-02-10T01:13:33;0.20;92.90
21944;DHT22;11136;48.778;9.126;2023-02-10T01:15:59;0.20;92.90
21944;DHT22;11136;48.778;9.126;2023-02-10T01:18:25;0.20;92.90
21944;DHT22;11136;48.778;9.126;2023-02-10T01:20:50;0.20;92.90
21944;DHT22;11136;48.778;9.126;2023-02-10T01:23:16;0.10;92.90
21944;DHT22;11136;48.778;9.126;2023-02-10T01:25:42;0.10;92.90
21944;DHT22;11136;48.778;9.126;2023-02-10T01:28:09;0.10;92.90
21944;DHT22;11136;48.778;9.126;2023-02-10T01:30:34;0.10;92.90
21944;DHT22;11136;48.778;9.126;2023-02-10T01:33:00;0.10;92.90
21944;DHT22;11136;48.778;9.126;2023-02-10T01:35:26;0.10;93.00
21944;DHT22;11136;48.778;9.126;2023-02-10T01:37:52;0.00;93.00
21944;DHT22;11136;48.778;9.126;2023-02-10T01:40:20;0.00;93.00
21944;DHT22;11136;48.778;9.126;2023-02-10T01:42:45;0.00;93.00
21944;DHT22;11136;48.778;9.126;2023-02-10T01:45:20;0.00;93.00
21944;DHT22;11136;48.778;9.126;2023-02-10T01:47:50;0.00;93.10
21944;DHT22;11136;48.778;9.126;2023-02-10T01:50:19;0.00;93.10
21944;DHT22;11136;48.778;9.126;2023-02-10T01:52:45;0.00;93.10
21944;DHT22;11136;48.778;9.126;2023-02-10T01:55:15;0.00;93.10
21944;DHT22;11136;48.778;9.126;2023-02-10T01:57:43;-0.10;93.10
21944;DHT22;11136;48.778;9.126;2023-02-10T02:00:10;-0.10;93.10
21944;DHT22;11136;48.778;9.126;2023-02-10T02:02:37;-0.10;93.10
21944;DHT22;11136;48.778;9.126;2023-02-10T02:05:07;-0.20;93.10
21944;DHT22;11136;48.778;9.126;2023-02-10T02:07:42;-0.20;93.20
21944;DHT22;11136;48.778;9.126;2023-02-10T02:10:08;-0.20;93.20
21944;DHT22;11136;48.778;9.126;2023-02-10T02:15:46;-0.20;93.30
21944;DHT22;11136;48.778;9.126;2023-02-10T02:27:04;-0.30;93.30
21944;DHT22;11136;48.778;9.126;2023-02-10T02:30:09;-0.30;93.30
21944;DHT22;11136;48.778;9.126;2023-02-10T02:32:30;-0.30;93.40
21944;DHT22;11136;48.778;9.126;2023-02-10T02:35:07;-0.30;93.40
21944;DHT22;11136;48.778;9.126;2023-02-10T02:37:40;-0.30;93.40
21944;DHT22;11136;48.778;9.126;2023-02-10T02:40:07;-0.30;93.40
21944;DHT22;11136;48.778;9.126;2023-02-10T02:42:33;-0.30;93.80
21944;DHT22;11136;48.778;9.126;2023-02-10T02:47:41;-0.10;93.60
21944;DHT22;11136;48.778;9.126;2023-02-10T02:53:09;-0.40;93.50
21944;DHT22;11136;48.778;9.126;2023-02-10T02:58:28;-0.40;93.50
21944;DHT22;11136;48.778;9.126;2023-02-10T03:00:58;-0.40;93.60
21944;DHT22;11136;48.778;9.126;2023-02-10T03:03:33;-0.40;93.60
21944;DHT22;11136;48.778;9.126;2023-02-10T03:06:00;-0.40;93.60
21944;DHT22;11136;48.778;9.126;2023-02-10T03:08:28;-0.40;93.60
21944;DHT22;11136;48.778;9.126;2023-02-10T03:10:55;-0.40;94.00
21944;DHT22;11136;48.778;9.126;2023-02-10T03:13:20;-0.40;93.70
21944;DHT22;11136;48.778;9.126;2023-02-10T03:15:46;-0.40;93.70
21944;DHT22;11136;48.778;9.126;2023-02-10T03:18:12;-0.40;93.70
21944;DHT22;11136;48.778;9.126;2023-02-10T03:20:38;-0.40;93.80
21944;DHT22;11136;48.778;9.126;2023-02-10T03:23:04;-0.40;93.80
21944;DHT22;11136;48.778;9.126;2023-02-10T03:25:30;-0.40;93.90
21944;DHT22;11136;48.778;9.126;2023-02-10T03:27:55;-0.40;93.90
21944;DHT22;11136;48.778;9.126;2023-02-10T03:30:21;-0.40;93.90
21944;DHT22;11136;48.778;9.126;2023-02-10T03:32:47;-0.40;94.00
21944;DHT22;11136;48.778;9.126;2023-02-10T03:35:14;-0.40;94.00
21944;DHT22;11136;48.778;9.126;2023-02-10T03:37:39;-0.40;94.00
21944;DHT22;11136;48.778;9.126;2023-02-10T03:40:05;-0.40;94.00
21944;DHT22;11136;48.778;9.126;2023-02-10T03:42:31;-0.40;94.10
21944;DHT22;11136;48.778;9.126;2023-02-10T03:44:56;-0.40;94.10
21944;DHT22;11136;48.778;9.126;2023-02-10T03:47:22;-0.40;94.10
21944;DHT22;11136;48.778;9.126;2023-02-10T03:49:47;-0.40;94.10
21944;DHT22;11136;48.778;9.126;2023-02-10T03:52:13;-0.40;94.20
21944;DHT22;11136;48.778;9.126;2023-02-10T03:54:39;-0.20;94.30
21944;DHT22;11136;48.778;9.126;2023-02-10T03:57:04;-0.40;94.20
21944;DHT22;11136;48.778;9.126;2023-02-10T03:59:31;-0.40;94.30
21944;DHT22;11136;48.778;9.126;2023-02-10T04:01:56;-0.40;94.30
21944;DHT22;11136;48.778;9.126;2023-02-10T04:04:22;-0.20;94.30
21944;DHT22;11136;48.778;9.126;2023-02-10T04:06:48;-0.40;94.30
21944;DHT22;11136;48.778;9.126;2023-02-10T04:09:13;-0.40;94.30
21944;DHT22;11136;48.778;9.126;2023-02-10T04:11:39;-0.40;94.40
21944;DHT22;11136;48.778;9.126;2023-02-10T04:14:05;-0.40;94.40
21944;DHT22;11136;48.778;9.126;2023-02-10T04:16:30;-0.40;94.40
21944;DHT22;11136;48.778;9.126;2023-02-10T04:18:57;-0.40;94.40
21944;DHT22;11136;48.778;9.126;2023-02-10T04:21:23;-0.40;94.40
21944;DHT22;11136;48.778;9.126;2023-02-10T04:23:50;-0.40;94.40
21944;DHT22;11136;48.778;9.126;2023-02-10T04:26:16;-0.40;94.50
21944;DHT22;11136;48.778;9.126;2023-02-10T04:28:42;-0.40;94.50
21944;DHT22;11136;48.778;9.126;2023-02-10T04:31:08;-0.40;94.50
21944;DHT22;11136;48.778;9.126;2023-02-10T04:33:35;-0.50;94.50
21944;DHT22;11136;48.778;9.126;2023-02-10T04:36:01;-0.50;94.60
21944;DHT22;11136;48.778;9.126;2023-02-10T04:38:28;-0.50;94.60
21944;DHT22;11136;48.778;9.126;2023-02-10T04:40:54;-0.50;94.60
21944;DHT22;11136;48.778;9.126;2023-02-10T04:43:20;-0.50;94.60
21944;DHT22;11136;48.778;9.126;2023-02-10T04:45:46;-0.20;94.70
21944;DHT22;11136;48.778;9.126;2023-02-10T04:48:13;-0.50;94.60
21944;DHT22;11136;48.778;9.126;2023-02-10T04:50:39;-0.50;94.70
21944;DHT22;11136;48.778;9.126;2023-02-10T04:53:05;-0.50;94.70
21944;DHT22;11136;48.778;9.126;2023-02-10T04:55:32;-0.50;94.70
21944;DHT22;11136;48.778;9.126;2023-02-10T04:57:58;-0.50;94.70
21944;DHT22;11136;48.778;9.126;2023-02-10T05:00:23;-0.50;94.80
21944;DHT22;11136;48.778;9.126;2023-02-10T05:02:49;-0.50;94.80
21944;DHT22;11136;48.778;9.126;2023-02-10T05:05:16;-0.60;94.70
21944;DHT22;11136;48.778;9.126;2023-02-10T05:07:42;-0.30;94.90
21944;DHT22;11136;48.778;9.126;2023-02-10T05:10:08;-0.60;94.80
21944;DHT22;11136;48.778;9.126;2023-02-10T05:12:33;-0.60;94.90
21944;DHT22;11136;48.778;9.126;2023-02-10T05:14:59;-0.60;94.90
21944;DHT22;11136;48.778;9.126;2023-02-10T05:17:25;-0.60;94.90
21944;DHT22;11136;48.778;9.126;2023-02-10T05:19:50;-0.60;94.90
21944;DHT22;11136;48.778;9.126;2023-02-10T05:22:16;-0.60;94.90
21944;DHT22;11136;48.778;9.126;2023-02-10T05:24:41;-0.60;94.90
21944;DHT22;11136;48.778;9.126;2023-02-10T05:27:07;-0.60;95.00
21944;DHT22;11136;48.778;9.126;2023-02-10T05:29:33;-0.60;95.00
21944;DHT22;11136;48.778;9.126;2023-02-10T05:31:58;-0.60;94.90
21944;DHT22;11136;48.778;9.126;2023-02-10T05:34:24;-0.60;94.90
21944;DHT22;11136;48.778;9.126;2023-02-10T05:36:51;-0.60;95.00
21944;DHT22;11136;48.778;9.126;2023-02-10T05:39:17;-0.70;95.00
21944;DHT22;11136;48.778;9.126;2023-02-10T05:41:56;-0.70;95.00
21944;DHT22;11136;48.778;9.126;2023-02-10T05:44:24;-0.70;95.00
21944;DHT22;11136;48.778;9.126;2023-02-10T05:46:50;-0.70;95.00
21944;DHT22;11136;48.778;9.126;2023-02-10T05:49:16;-0.70;95.00
21944;DHT22;11136;48.778;9.126;2023-02-10T05:51:42;-0.60;95.00
21944;DHT22;11136;48.778;9.126;2023-02-10T05:54:08;-0.70;95.00
21944;DHT22;11136;48.778;9.126;2023-02-10T05:56:34;-0.70;95.00
21944;DHT22;11136;48.778;9.126;2023-02-10T05:58:59;-0.80;95.00
21944;DHT22;11136;48.778;9.126;2023-02-10T06:01:25;-0.80;95.00
21944;DHT22;11136;48.778;9.126;2023-02-10T06:03:51;-0.80;95.00
21944;DHT22;11136;48.778;9.126;2023-02-10T06:06:16;-0.80;95.00
21944;DHT22;11136;48.778;9.126;2023-02-10T06:08:42;-0.80;95.00
21944;DHT22;11136;48.778;9.126;2023-02-10T06:11:08;-0.80;95.00
21944;DHT22;11136;48.778;9.126;2023-02-10T06:13:34;-0.60;95.10
21944;DHT22;11136;48.778;9.126;2023-02-10T06:16:00;-0.80;95.00
21944;DHT22;11136;48.778;9.126;2023-02-10T06:18:28;-0.80;95.00
21944;DHT22;11136;48.778;9.126;2023-02-10T06:20:53;-0.80;95.10
21944;DHT22;11136;48.778;9.126;2023-02-10T06:23:19;-0.80;95.10
21944;DHT22;11136;48.778;9.126;2023-02-10T06:25:46;-0.80;95.10
21944;DHT22;11136;48.778;9.126;2023-02-10T06:28:12;-0.80;95.10
21944;DHT22;11136;48.778;9.126;2023-02-10T06:30:37;-0.80;95.10
21944;DHT22;11136;48.778;9.126;2023-02-10T06:33:03;-0.80;95.10
21944;DHT22;11136;48.778;9.126;2023-02-10T06:35:29;-0.80;95.20
21944;DHT22;11136;48.778;9.126;2023-02-10T06:37:55;-0.80;95.10
21944;DHT22;11136;48.778;9.126;2023-02-10T06:40:21;-0.80;95.20
21944;DHT22;11136;48.778;9.126;2023-02-10T06:42:47;-0.80;95.20
21944;DHT22;11136;48.778;9.126;2023-02-10T06:45:13;-0.80;95.20
21944;DHT22;11136;48.778;9.126;2023-02-10T06:47:38;-0.80;95.20
21944;DHT22;11136;48.778;9.126;2023-02-10T06:50:04;-0.80;95.20
21944;DHT22;11136;48.778;9.126;2023-02-10T06:52:30;-0.80;95.20
21944;DHT22;11136;48.778;9.126;2023-02-10T06:54:57;-0.80;95.20
21944;DHT22;11136;48.778;9.126;2023-02-10T06:57:22;-0.80;95.20
21944;DHT22;11136;48.778;9.126;2023-02-10T06:59:48;-0.80;95.20
21944;DHT22;11136;48.778;9.126;2023-02-10T07:02:13;-0.80;95.20
21944;DHT22;11136;48.778;9.126;2023-02-10T07:04:39;-0.80;95.30
21944;DHT22;11136;48.778;9.126;2023-02-10T07:07:05;-0.80;95.40
21944;DHT22;11136;48.778;9.126;2023-02-10T07:09:31;-0.60;95.50
21944;DHT22;11136;48.778;9.126;2023-02-10T07:11:59;-0.80;95.50
21944;DHT22;11136;48.778;9.126;2023-02-10T07:14:25;-0.80;95.50
21944;DHT22;11136;48.778;9.126;2023-02-10T07:16:50;-0.80;95.60
21944;DHT22;11136;48.778;9.126;2023-02-10T07:19:16;-0.80;95.50
21944;DHT22;11136;48.778;9.126;2023-02-10T07:21:42;-0.70;95.60
21944;DHT22;11136;48.778;9.126;2023-02-10T07:24:08;-0.70;95.60
21944;DHT22;11136;48.778;9.126;2023-02-10T07:26:33;-0.70;95.60
21944;DHT22;11136;48.778;9.126;2023-02-10T07:28:59;-0.70;95.60
21944;DHT22;11136;48.778;9.126;2023-02-10T07:31:25;-0.70;95.70
21944;DHT22;11136;48.778;9.126;2023-02-10T07:33:51;-0.70;95.70
21944;DHT22;11136;48.778;9.126;2023-02-10T07:36:16;-0.70;95.80
21944;DHT22;11136;48.778;9.126;2023-02-10T07:38:42;-0.70;95.90
21944;DHT22;11136;48.778;9.126;2023-02-10T07:41:08;-0.60;96.00
21944;DHT22;11136;48.778;9.126;2023-02-10T07:43:34;-0.60;96.10
21944;DHT22;11136;48.778;9.126;2023-02-10T07:46:00;-0.50;96.20
21944;DHT22;11136;48.778;9.126;2023-02-10T07:48:26;-0.50;96.30
21944;DHT22;11136;48.778;9.126;2023-02-10T07:50:52;-0.50;96.30
21944;DHT22;11136;48.778;9.126;2023-02-10T07:53:18;-0.40;96.40
21944;DHT22;11136;48.778;9.126;2023-02-10T07:55:44;-0.30;96.50
21944;DHT22;11136;48.778;9.126;2023-02-10T07:58:10;-0.30;96.70
21944;DHT22;11136;48.778;9.126;2023-02-10T08:00:35;-0.20;96.80
21944;DHT22;11136;48.778;9.126;2023-02-10T08:03:01;-0.10;97.00
21944;DHT22;11136;48.778;9.126;2023-02-10T08:05:26;0.10;97.30
21944;DHT22;11136;48.778;9.126;2023-02-10T08:07:54;0.30;97.40
21944;DHT22;11136;48.778;9.126;2023-02-10T08:10:21;0.40;97.60
21944;DHT22;11136;48.778;9.126;2023-02-10T08:12:46;0.60;97.60
21944;DHT22;11136;48.778;9.126;2023-02-10T08:15:12;0.80;97.70
21944;DHT22;11136;48.778;9.126;2023-02-10T08:17:38;1.10;97.80
21944;DHT22;11136;48.778;9.126;2023-02-10T08:20:05;1.40;97.90
21944;DHT22;11136;48.778;9.126;2023-02-10T08:22:31;1.70;98.00
21944;DHT22;11136;48.778;9.126;2023-02-10T08:24:58;1.90;98.00
21944;DHT22;11136;48.778;9.126;2023-02-10T08:27:24;2.10;98.00
21944;DHT22;11136;48.778;9.126;2023-02-10T08:29:49;2.30;98.00
21944;DHT22;11136;48.778;9.126;2023-02-10T08:32:15;2.70;98.20
21944;DHT22;11136;48.778;9.126;2023-02-10T08:34:46;2.70;98.20
21944;DHT22;11136;48.778;9.126;2023-02-10T08:37:12;2.80;98.20
21944;DHT22;11136;48.778;9.126;2023-02-10T08:39:37;3.00;98.30
21944;DHT22;11136;48.778;9.126;2023-02-10T08:42:03;3.20;98.30
21944;DHT22;11136;48.778;9.126;2023-02-10T08:44:28;3.30;98.30
21944;DHT22;11136;48.778;9.126;2023-02-10T08:46:54;3.50;98.30
21944;DHT22;11136;48.778;9.126;2023-02-10T08:49:20;3.60;98.20
21944;DHT22;11136;48.778;9.126;2023-02-10T08:51:47;3.70;98.10
21944;DHT22;11136;48.778;9.126;2023-02-10T08:54:13;3.80;98.00
21944;DHT22;11136;48.778;9.126;2023-02-10T08:56:39;3.90;97.90
21944;DHT22;11136;48.778;9.126;2023-02-10T08:59:05;4.00;97.90
21944;DHT22;11136;48.778;9.126;2023-02-10T09:01:30;4.10;97.80
21944;DHT22;11136;48.778;9.126;2023-02-10T09:03:56;4.30;97.70
21944;DHT22;11136;48.778;9.126;2023-02-10T09:06:34;4.30;97.90
21944;DHT22;11136;48.778;9.126;2023-02-10T09:09:08;4.40;97.40
21944;DHT22;11136;48.778;9.126;2023-02-10T09:11:33;4.60;97.40
21944;DHT22;11136;48.778;9.126;2023-02-10T09:14:00;4.60;97.30
21944;DHT22;11136;48.778;9.126;2023-02-10T09:16:25;4.70;96.90
21944;DHT22;11136;48.778;9.126;2023-02-10T09:18:51;4.80;96.80
21944;DHT22;11136;48.778;9.126;2023-02-10T09:21:17;4.90;96.60
21944;DHT22;11136;48.778;9.126;2023-02-10T09:23:43;5.00;96.60
21944;DHT22;11136;48.778;9.126;2023-02-10T09:26:08;5.10;96.30
21944;DHT22;11136;48.778;9.126;2023-02-10T09:28:35;5.10;96.00
21944;DHT22;11136;48.778;9.126;2023-02-10T09:31:04;5.20;95.80
21944;DHT22;11136;48.778;9.126;2023-02-10T09:33:30;5.20;95.70
21944;DHT22;11136;48.778;9.126;2023-02-10T09:35:56;5.30;95.40
21944;DHT22;11136;48.778;9.126;2023-02-10T09:38:21;5.40;95.20
21944;DHT22;11136;48.778;9.126;2023-02-10T09:45:57;5.50;94.70
21944;DHT22;11136;48.778;9.126;2023-02-10T09:51:50;5.60;94.00
21944;DHT22;11136;48.778;9.126;2023-02-10T09:54:19;5.60;93.40
21944;DHT22;11136;48.778;9.126;2023-02-10T09:56:45;5.60;93.30
21944;DHT22;11136;48.778;9.126;2023-02-10T09:59:15;5.60;93.30
21944;DHT22;11136;48.778;9.126;2023-02-10T10:02:07;5.60;93.10
21944;DHT22;11136;48.778;9.126;2023-02-10T10:04:33;5.70;92.80
21944;DHT22;11136;48.778;9.126;2023-02-10T10:07:21;5.70;92.30
21944;DHT22;11136;48.778;9.126;2023-02-10T10:10:01;5.70;91.80
21944;DHT22;11136;48.778;9.126;2023-02-10T10:12:28;5.70;91.40
21944;DHT22;11136;48.778;9.126;2023-02-10T10:14:54;5.80;91.50
21944;DHT22;11136;48.778;9.126;2023-02-10T10:17:38;5.80;91.00
21944;DHT22;11136;48.778;9.126;2023-02-10T10:20:27;5.80;90.30
21944;DHT22;11136;48.778;9.126;2023-02-10T10:28:45;5.80;90.40
21944;DHT22;11136;48.778;9.126;2023-02-10T10:31:21;5.80;90.40
21944;DHT22;11136;48.778;9.126;2023-02-10T10:33:52;5.90;90.50
21944;DHT22;11136;48.778;9.126;2023-02-10T10:36:38;6.00;90.40
21944;DHT22;11136;48.778;9.126;2023-02-10T10:39:17;6.10;90.20
21944;DHT22;11136;48.778;9.126;2023-02-10T10:41:47;6.10;90.10
21944;DHT22;11136;48.778;9.126;2023-02-10T10:44:16;6.20;90.00
21944;DHT22;11136;48.778;9.126;2023-02-10T10:46:49;6.30;89.70
21944;DHT22;11136;48.778;9.126;2023-02-10T10:49:16;6.30;89.10
21944;DHT22;11136;48.778;9.126;2023-02-10T10:51:41;6.30;89.10
21944;DHT22;11136;48.778;9.126;2023-02-10T10:54:14;6.40;88.90
21944;DHT22;11136;48.778;9.126;2023-02-10T10:56:44;6.50;88.50
21944;DHT22;11136;48.778;9.126;2023-02-10T10:59:25;6.60;88.50
21944;DHT22;11136;48.778;9.126;2023-02-10T11:01:52;6.70;87.60
21944;DHT22;11136;48.778;9.126;2023-02-10T11:04:23;6.80;87.30
21944;DHT22;11136;48.778;9.126;2023-02-10T11:06:54;6.80;87.00
21944;DHT22;11136;48.778;9.126;2023-02-10T11:09:33;7.00;87.20
21944;DHT22;11136;48.778;9.126;2023-02-10T11:12:05;7.00;86.80
21944;DHT22;11136;48.778;9.126;2023-02-10T11:14:43;7.10;86.00
21944;DHT22;11136;48.778;9.126;2023-02-10T11:19:56;7.10;85.90
21944;DHT22;11136;48.778;9.126;2023-02-10T11:22:22;7.30;86.20
21944;DHT22;11136;48.778;9.126;2023-02-10T11:24:57;7.40;86.70
21944;DHT22;11136;48.778;9.126;2023-02-10T11:27:23;7.50;86.90
21944;DHT22;11136;48.778;9.126;2023-02-10T11:29:54;7.60;87.10
21944;DHT22;11136;48.778;9.126;2023-02-10T11:32:29;7.70;86.80
21944;DHT22;11136;48.778;9.126;2023-02-10T11:34:57;7.80;86.70
21944;DHT22;11136;48.778;9.126;2023-02-10T11:37:27;7.90;86.70
21944;DHT22;11136;48.778;9.126;2023-02-10T11:39:55;8.00;86.40
21944;DHT22;11136;48.778;9.126;2023-02-10T11:42:30;8.10;86.30
21944;DHT22;11136;48.778;9.126;2023-02-10T11:47:35;8.20;86.00
21944;DHT22;11136;48.778;9.126;2023-02-10T11:50:03;8.30;85.70
21944;DHT22;11136;48.778;9.126;2023-02-10T11:52:29;8.30;85.20
21944;DHT22;11136;48.778;9.126;2023-02-10T11:54:56;8.40;84.70
21944;DHT22;11136;48.778;9.126;2023-02-10T12:00:39;8.50;83.70
21944;DHT22;11136;48.778;9.126;2023-02-10T12:03:18;8.60;83.60
21944;DHT22;11136;48.778;9.126;2023-02-10T12:14:06;8.80;82.70
21944;DHT22;11136;48.778;9.126;2023-02-10T12:16:44;8.90;82.80
21944;DHT22;11136;48.778;9.126;2023-02-10T12:19:38;8.90;82.80
21944;DHT22;11136;48.778;9.126;2023-02-10T12:22:24;9.00;82.40
21944;DHT22;11136;48.778;9.126;2023-02-10T12:33:30;9.10;80.70
21944;DHT22;11136;48.778;9.126;2023-02-10T12:36:21;9.10;80.60
21944;DHT22;11136;48.778;9.126;2023-02-10T12:47:17;9.40;80.30
21944;DHT22;11136;48.778;9.126;2023-02-10T12:49:52;9.50;79.60
21944;DHT22;11136;48.778;9.126;2023-02-10T12:52:30;9.50;79.80
21944;DHT22;11136;48.778;9.126;2023-02-10T12:55:13;9.60;79.30
21944;DHT22;11136;48.778;9.126;2023-02-10T13:05:28;9.90;79.00
21944;DHT22;11136;48.778;9.126;2023-02-10T13:08:00;10.00;77.80
21944;DHT22;11136;48.778;9.126;2023-02-10T13:13:01;10.30;77.30
21944;DHT22;11136;48.778;9.126;2023-02-10T13:15:33;10.40;78.60
21944;DHT22;11136;48.778;9.126;2023-02-10T13:18:01;10.50;78.00
21944;DHT22;11136;48.778;9.126;2023-02-10T13:20:40;10.60;77.30
21944;DHT22;11136;48.778;9.126;2023-02-10T13:23:39;10.70;76.10
21944;DHT22;11136;48.778;9.126;2023-02-10T13:32:12;11.10;74.30
21944;DHT22;11136;48.778;9.126;2023-02-10T13:34:40;11.20;74.00
21944;DHT22;11136;48.778;9.126;2023-02-10T13:37:28;11.30;74.10
21944;DHT22;11136;48.778;9.126;2023-02-10T13:39:59;11.40;74.10
21944;DHT22;11136;48.778;9.126;2023-02-10T13:42:37;11.50;73.60
21944;DHT22;11136;48.778;9.126;2023-02-10T13:47:41;11.70;72.90
21944;DHT22;11136;48.778;9.126;2023-02-10T13:55:48;11.60;71.50
21944;DHT22;11136;48.778;9.126;2023-02-10T14:00:43;11.50;71.40
21944;DHT22;11136;48.778;9.126;2023-02-10T14:05:38;11.40;71.40
21944;DHT22;11136;48.778;9.126;2023-02-10T14:08:27;11.40;71.30
21944;DHT22;11136;48.778;9.126;2023-02-10T14:11:02;11.40;70.90
21944;DHT22;11136;48.778;9.126;2023-02-10T14:13:31;11.50;71.10
21944;DHT22;11136;48.778;9.126;2023-02-10T14:16:06;11.50;71.00
21944;DHT22;11136;48.778;9.126;2023-02-10T14:18:37;11.50;70.80
21944;DHT22;11136;48.778;9.126;2023-02-10T14:23:37;11.50;70.50
21944;DHT22;11136;48.778;9.126;2023-02-10T14:26:32;11.50;70.20
21944;DHT22;11136;48.778;9.126;2023-02-10T14:29:00;11.40;69.70
21944;DHT22;11136;48.778;9.126;2023-02-10T14:31:35;11.30;70.10
21944;DHT22;11136;48.778;9.126;2023-02-10T14:34:23;11.30;69.70
21944;DHT22;11136;48.778;9.126;2023-02-10T14:39:21;11.20;70.90
21944;DHT22;11136;48.778;9.126;2023-02-10T14:41:47;11.20;71.10
21944;DHT22;11136;48.778;9.126;2023-02-10T14:44:33;11.20;71.10
21944;DHT22;11136;48.778;9.126;2023-02-10T14:47:00;11.10;70.40
21944;DHT22;11136;48.778;9.126;2023-02-10T14:49:26;11.20;70.40
21944;DHT22;11136;48.778;9.126;2023-02-10T14:51:53;11.10;70.00
21944;DHT22;11136;48.778;9.126;2023-02-10T14:54:22;11.10;69.60
21944;DHT22;11136;48.778;9.126;2023-02-10T14:56:52;11.00;69.30
21944;DHT22;11136;48.778;9.126;2023-02-10T14:59:26;10.90;69.10
21944;DHT22;11136;48.778;9.126;2023-02-10T15:01:54;10.90;69.20
21944;DHT22;11136;48.778;9.126;2023-02-10T15:04:21;10.80;69.10
21944;DHT22;11136;48.778;9.126;2023-02-10T15:06:52;10.80;68.90
21944;DHT22;11136;48.778;9.126;2023-02-10T15:09:22;10.70;68.70
21944;DHT22;11136;48.778;9.126;2023-02-10T15:11:54;10.60;68.50
21944;DHT22;11136;48.778;9.126;2023-02-10T15:14:49;10.40;68.50
21944;DHT22;11136;48.778;9.126;2023-02-10T15:17:47;10.40;68.70
21944;DHT22;11136;48.778;9.126;2023-02-10T15:23:02;10.20;68.90
21944;DHT22;11136;48.778;9.126;2023-02-10T15:27:57;10.10;69.00
21944;DHT22;11136;48.778;9.126;2023-02-10T15:30:26;10.10;68.90
21944;DHT22;11136;48.778;9.126;2023-02-10T15:32:57;10.00;69.00
21944;DHT22;11136;48.778;9.126;2023-02-10T15:35:24;10.00;69.00
21944;DHT22;11136;48.778;9.126;2023-02-10T15:37:53;9.90;69.00
21944;DHT22;11136;48.778;9.126;2023-02-10T15:40:26;9.80;68.90
21944;DHT22;11136;48.778;9.126;2023-02-10T15:43:05;9.70;69.10
21944;DHT22;11136;48.778;9.126;2023-02-10T15:45:31;9.70;69.40
21944;DHT22;11136;48.778;9.126;2023-02-10T15:48:00;9.60;69.60
21944;DHT22;11136;48.778;9.126;2023-02-10T15:50:28;9.50;69.60
21944;DHT22;11136;48.778;9.126;2023-02-10T15:52:55;9.30;69.60
21944;DHT22;11136;48.778;9.126;2023-02-10T15:55:31;9.10;69.80
21944;DHT22;11136;48.778;9.126;2023-02-10T15:57:58;9.00;69.80
21944;DHT22;11136;48.778;9.126;2023-02-10T16:00:26;9.00;70.20
21944;DHT22;11136;48.778;9.126;2023-02-10T16:02:52;8.60;70.30
21944;DHT22;11136;48.778;9.126;2023-02-10T16:05:18;8.80;71.00
21944;DHT22;11136;48.778;9.126;2023-02-10T16:07:45;8.40;71.20
21944;DHT22;11136;48.778;9.126;2023-02-10T16:12:43;8.20;72.10
21944;DHT22;11136;48.778;9.126;2023-02-10T16:15:21;8.10;72.30
21944;DHT22;11136;48.778;9.126;2023-02-10T16:17:50;8.00;72.60
21944;DHT22;11136;48.778;9.126;2023-02-10T16:20:20;7.90;72.60
21944;DHT22;11136;48.778;9.126;2023-02-10T16:22:47;7.90;73.70
21944;DHT22;11136;48.778;9.126;2023-02-10T16:25:14;7.80;73.20
21944;DHT22;11136;48.778;9.126;2023-02-10T16:27:41;7.70;73.50
21944;DHT22;11136;48.778;9.126;2023-02-10T16:30:13;7.60;73.60
21944;DHT22;11136;48.778;9.126;2023-02-10T16:32:39;7.60;73.90
21944;DHT22;11136;48.778;9.126;2023-02-10T16:35:05;7.50;74.10
21944;DHT22;11136;48.778;9.126;2023-02-10T16:37:31;7.40;74.30
21944;DHT22;11136;48.778;9.126;2023-02-10T16:39:56;7.30;74.40
21944;DHT22;11136;48.778;9.126;2023-02-10T16:42:22;7.20;74.70
21944;DHT22;11136;48.778;9.126;2023-02-10T16:44:47;7.10;75.00
21944;DHT22;11136;48.778;9.126;2023-02-10T16:47:17;7.10;75.30
21944;DHT22;11136;48.778;9.126;2023-02-10T16:49:43;7.00;75.50
21944;DHT22;11136;48.778;9.126;2023-02-10T16:52:09;7.00;75.70
21944;DHT22;11136;48.778;9.126;2023-02-10T16:54:35;6.90;76.60
21944;DHT22;11136;48.778;9.126;2023-02-10T16:57:00;6.80;75.90
21944;DHT22;11136;48.778;9.126;2023-02-10T16:59:26;6.80;76.10
21944;DHT22;11136;48.778;9.126;2023-02-10T17:01:53;6.70;76.20
21944;DHT22;11136;48.778;9.126;2023-02-10T17:04:18;6.70;76.30
21944;DHT22;11136;48.778;9.126;2023-02-10T17:06:47;6.60;76.40
21944;DHT22;11136;48.778;9.126;2023-02-10T17:09:19;6.60;76.80
21944;DHT22;11136;48.778;9.126;2023-02-10T17:11:45;6.50;76.90
21944;DHT22;11136;48.778;9.126;2023-02-10T17:14:11;6.40;77.00
21944;DHT22;11136;48.778;9.126;2023-02-10T17:16:39;6.40;77.10
21944;DHT22;11136;48.778;9.126;2023-02-10T17:19:06;6.40;77.30
21944;DHT22;11136;48.778;9.126;2023-02-10T17:21:32;6.30;77.50
21944;DHT22;11136;48.778;9.126;2023-02-10T17:23:59;6.20;77.70
21944;DHT22;11136;48.778;9.126;2023-02-10T17:26:25;6.20;78.60
21944;DHT22;11136;48.778;9.126;2023-02-10T17:28:51;6.10;78.00
21944;DHT22;11136;48.778;9.126;2023-02-10T17:31:19;6.10;78.20
21944;DHT22;11136;48.778;9.126;2023-02-10T17:33:45;6.00;78.40
21944;DHT22;11136;48.778;9.126;2023-02-10T17:36:23;6.00;78.50